Flight Track Log - Related Links

Times and Time Zones

All times are in EDT time to prevent confusion due to time zone crossing. See the UAL407 flight status page for this flight to view local times or setup timezone preferences in your user account.

Time Position Orientation Groundspeed Altitude Reporting Facility
EDT Latitude Longitude Course Direction KTS MPH feet Rate Location/Type
Sun 11:44:00 AM 33.9500 -118.3667 73° East 189 217 1,800  Level Southern California TRACON
Sun 11:44:58 AM 33.9828 -118.2994 60° Northeast 219 252 4,100 2,250 Climbing Los Angeles Center
Sun 11:46:00 AM 34.0219 -118.2289 56° Northeast 240 276 6,300 2,244 Climbing Los Angeles Center
Sun 11:47:00 AM 34.3276 -118.0543 32° Northeast  Level FlightAware Approximate
Sun 11:47:01 AM 34.0764 -118.1511 50° Northeast 285 328 8,700  Level Los Angeles Center
Sun 11:48:00 AM 34.3667 -117.9316 90° East  Level FlightAware Approximate
Sun 11:48:03 AM 34.1303 -118.0678 52° Northeast 307 353 11,200  Level Los Angeles Center
Sun 11:49:00 AM 34.3985 -117.7895 73° East  Level FlightAware Approximate
Sun 11:49:05 AM 34.1975 -117.9867 45° Northeast 340 391 12,800  Level Los Angeles Center
Sun 11:50:07 AM 34.2597 -117.8800 55° Northeast 377 434 14,600 1,707 Climbing Los Angeles Center
Sun 11:51:08 AM 34.3233 -117.7678 56° Northeast 397 457 16,300 1,415 Climbing Los Angeles Center
Sun 11:52:10 AM 34.3944 -117.6325 57° Northeast 437 503 17,500 1,500 Climbing Los Angeles Center
Sun 11:53:12 AM 34.4636 -117.5053 57° Northeast 454 522 19,400 1,694 Climbing Los Angeles Center
Sun 11:54:14 AM 34.5342 -117.3761 56° Northeast 462 532 21,000 1,610 Climbing Los Angeles Center
Sun 11:55:15 AM 34.6200 -117.2167 57° Northeast 471 542 22,700 1,415 Climbing Los Angeles Center
Sun 11:56:17 AM 34.6931 -117.0808 57° Northeast 483 556 23,900 1,258 Climbing Los Angeles Center
Sun 11:57:19 AM 34.7786 -116.9519 51° Northeast 494 568 25,300 1,113 Climbing Los Angeles Center
Sun 11:58:21 AM 34.8697 -116.8286 48° Northeast 495 570 26,200 800 Climbing Los Angeles Center
Sun 11:59:34 AM 34.9642 -116.7006 48° Northeast 506 582 27,100 1,200 Climbing Los Angeles Center
Sun 12:00:36 PM 35.0950 -116.5211 48° Northeast 508 585 28,900 1,500 Climbing Los Angeles Center
Sun 12:01:38 PM 35.1881 -116.3933 48° Northeast 506 582 30,200 1,306 Climbing Los Angeles Center
Sun 12:02:40 PM 35.2864 -116.2664 46° Northeast 510 587 31,600 1,171 Climbing Los Angeles Center
Sun 12:03:41 PM 35.3761 -116.1381 49° Northeast 503 579 32,600 927 Climbing Los Angeles Center
Sun 12:04:43 PM 35.4697 -116.0097 48° Northeast 504 580 33,500 871 Climbing Los Angeles Center
Sun 12:05:45 PM 35.5686 -115.8750 48° Northeast 508 585 34,400 726 Climbing Los Angeles Center
Sun 12:06:47 PM 35.6631 -115.7453 48° Northeast 510 587 35,000 293 Climbing Los Angeles Center
Sun 12:07:48 PM 35.7767 -115.5864 49° Northeast 518 596 35,000  Level Los Angeles Center
Sun 12:08:50 PM 35.8717 -115.4528 49° Northeast 522 601 35,000  Level Los Angeles Center
Sun 12:09:52 PM 35.9683 -115.3172 49° Northeast 529 609 35,000  Level Los Angeles Center
Sun 12:10:54 PM 36.0625 -115.1833 49° Northeast 523 602 35,000  Level Los Angeles Center
Sun 12:11:55 PM 36.1406 -115.0311 58° Northeast 527 606 35,000  Level Los Angeles Center
Sun 12:12:57 PM 36.2131 -114.8747 60° Northeast 528 608 35,000  Level Los Angeles Center
Sun 12:13:59 PM 36.3008 -114.6869 60° Northeast 527 606 35,000  Level Los Angeles Center
Sun 12:15:01 PM 36.3731 -114.5308 60° Northeast 525 604 35,000  Level Los Angeles Center
Sun 12:16:03 PM 36.4450 -114.3736 60° Northeast 525 604 35,000  Level Los Angeles Center
Sun 12:17:05 PM 36.5228 -114.2017 61° Northeast 522 601 35,000  Level Los Angeles Center
Sun 12:18:07 PM 36.5944 -114.0450 60° Northeast 522 601 35,000  Level Los Angeles Center
Sun 12:19:09 PM 36.6661 -113.8881 60° Northeast 522 601 35,000  Level Los Angeles Center
Sun 12:20:10 PM 36.7364 -113.7311 61° Northeast 522 601 35,000  Level Los Angeles Center
Sun 12:21:12 PM 36.7931 -113.6053 61° Northeast 522 601 35,000  Level Los Angeles Center
Sun 12:22:27 PM 36.8919 -113.3858 61° Northeast 520 598 35,000  Level Los Angeles Center
Sun 12:23:29 PM 36.9761 -113.1964 61° Northeast 522 601 35,000  Level Los Angeles Center
Sun 12:24:30 PM 37.0458 -113.0397 61° Northeast 520 598 35,000  Level Los Angeles Center
Sun 12:25:32 PM 37.1150 -112.8833 61° Northeast 519 597 35,000  Level Los Angeles Center
Sun 12:26:15 PM 37.1703 -112.7597 61° Northeast 517 595 35,000  Level Salt Lake Center
Sun 12:27:16 PM 37.2381 -112.6033 61° Northeast 517 595 35,000  Level Salt Lake Center
Sun 12:27:36 PM 37.2517 -112.5717 62° Northeast 517 595 35,000  Level Los Angeles Center
Sun 12:28:38 PM 37.3336 -112.3842 61° Northeast 516 594 35,000  Level Los Angeles Center
Sun 12:29:40 PM 37.4017 -112.2283 61° Northeast 514 592 35,000  Level Los Angeles Center
Sun 12:30:21 PM 37.4422 -112.1347 61° Northeast 515 593 35,000  Level Salt Lake Center
Sun 12:31:23 PM 37.5067 -111.9758 63° Northeast 513 590 35,000  Level Salt Lake Center
Sun 12:32:25 PM 37.5603 -111.7703 72° East 518 596 35,000  Level Salt Lake Center
Sun 12:33:10 PM 37.5864 -111.6672 72° East 515 593 35,000  Level Denver Center
Sun 12:34:12 PM 37.6378 -111.4608 72° East 518 596 35,000  Level Denver Center
Sun 12:34:28 PM 37.6472 -111.4272 70° East 517 595 35,000  Level Salt Lake Center
Sun 12:35:14 PM 37.6819 -111.2892 72° East 518 596 35,000  Level Denver Center
Sun 12:35:29 PM 37.6911 -111.2564 71° East 516 594 35,000  Level Salt Lake Center
Sun 12:36:16 PM 37.7253 -111.1172 73° East 518 596 35,000  Level Denver Center
Sun 12:37:18 PM 37.7678 -110.9453 73° East 516 594 35,000  Level Denver Center
Sun 12:38:20 PM 37.8108 -110.7744 72° East 514 592 35,000  Level Denver Center
Sun 12:39:22 PM 37.8517 -110.6036 73° East 510 587 35,000  Level Denver Center
Sun 12:40:24 PM 37.8992 -110.4133 72° East 511 588 35,000  Level Denver Center
Sun 12:41:26 PM 37.9456 -110.2208 73° East 511 588 35,000  Level Denver Center
Sun 12:42:28 PM 37.9861 -110.0569 73° East 509 586 35,000  Level Denver Center
Sun 12:43:30 PM 38.0325 -109.8667 73° East 506 582 35,000  Level Denver Center
Sun 12:44:32 PM 38.0700 -109.7142 73° East 507 583 35,000  Level Denver Center
Sun 12:45:34 PM 38.1167 -109.5228 73° East 509 586 35,000  Level Denver Center
Sun 12:46:36 PM 38.1556 -109.3594 73° East 507 583 35,000  Level Denver Center
Sun 12:47:38 PM 38.2014 -109.1692 73° East 505 581 35,000  Level Denver Center
Sun 12:48:41 PM 38.2403 -109.0028 73° East 511 588 35,000  Level Denver Center
Sun 12:49:43 PM 38.2847 -108.8114 73° East 507 583 35,000  Level Denver Center
Sun 12:50:45 PM 38.3231 -108.6481 73° East 505 581 35,000  Level Denver Center
Sun 12:51:47 PM 38.3681 -108.4567 73° East 506 582 35,000  Level Denver Center
Sun 12:52:49 PM 38.4058 -108.2944 73° East 503 579 35,000  Level Denver Center
Sun 12:53:51 PM 38.4489 -108.1039 74° East 501 577 35,000  Level Denver Center
Sun 12:54:53 PM 38.4856 -107.9400 74° East 503 579 35,000  Level Denver Center
Sun 12:55:55 PM 38.5286 -107.7500 74° East 501 577 35,000  Level Denver Center
Sun 12:56:57 PM 38.5658 -107.5856 74° East 503 579 35,000  Level Denver Center
Sun 12:57:59 PM 38.6078 -107.3942 74° East 503 579 35,000  Level Denver Center
Sun 12:59:01 PM 38.6431 -107.2294 75° East 503 579 35,000  Level Denver Center
Sun 01:00:03 PM 38.6814 -107.0578 74° East 500 575 35,000  Level Denver Center
Sun 01:01:05 PM 38.7192 -106.8833 74° East 508 585 35,000  Level Denver Center
Sun 01:02:07 PM 38.7550 -106.7125 75° East 503 579 35,000  Level Denver Center
Sun 01:03:09 PM 38.8006 -106.5036 74° East 507 583 35,000  Level Denver Center
Sun 01:04:11 PM 38.8464 -106.3328 71° East 510 587 35,000  Level Denver Center
Sun 01:05:13 PM 38.9025 -106.1431 69° East 513 590 35,000  Level Denver Center
Sun 01:06:15 PM 38.9514 -105.9697 70° East 513 590 35,000  Level Denver Center
Sun 01:07:17 PM 39.0025 -105.7961 69° East 513 590 35,000  Level Denver Center
Sun 01:08:19 PM 39.0514 -105.6219 70° East 514 592 35,000  Level Denver Center
Sun 01:09:21 PM 39.1014 -105.4464 70° East 517 595 35,000  Level Denver Center
Sun 01:10:23 PM 39.1533 -105.2714 69° East 521 600 35,000  Level Denver Center
Sun 01:11:25 PM 39.2014 -105.0975 70° East 511 588 35,000  Level Denver Center
Sun 01:12:27 PM 39.2586 -104.8922 70° East 519 597 35,000  Level Denver Center
Sun 01:13:29 PM 39.3053 -104.7183 71° East 514 592 35,000  Level Denver Center
Sun 01:14:31 PM 39.3531 -104.5431 71° East 519 597 35,000  Level Denver Center
Sun 01:15:33 PM 39.4003 -104.3675 71° East 519 597 35,000  Level Denver Center
Sun 01:16:36 PM 39.4481 -104.1897 71° East 524 603 35,000  Level Denver Center
Sun 01:17:38 PM 39.5036 -103.9825 71° East 521 600 35,000  Level Denver Center
Sun 01:18:40 PM 39.5500 -103.8022 71° East 520 598 35,000  Level Denver Center
Sun 01:19:42 PM 39.5972 -103.6236 71° East 519 597 35,000  Level Denver Center
Sun 01:20:44 PM 39.6442 -103.4439 71° East 522 601 35,000  Level Denver Center
Sun 01:21:46 PM 39.6897 -103.2633 72° East 523 602 35,000  Level Denver Center
Sun 01:22:48 PM 39.7344 -103.0808 72° East 525 604 35,000  Level Denver Center
Sun 01:23:50 PM 39.7792 -102.8994 72° East 523 602 35,000  Level Denver Center
Sun 01:24:52 PM 39.8308 -102.6978 71° East 520 598 35,000  Level Denver Center
Sun 01:25:54 PM 39.8725 -102.5261 72° East 519 597 35,000  Level Denver Center
Sun 01:26:56 PM 39.9203 -102.3256 73° East 520 598 35,000  Level Denver Center
Sun 01:27:58 PM 39.9633 -102.1544 72° East 520 598 35,000  Level Denver Center
Sun 01:29:00 PM 40.0072 -101.9531 74° East 518 596 35,000  Level Denver Center
Sun 01:30:02 PM 40.0436 -101.7772 75° East 524 603 35,000  Level Denver Center
Sun 01:31:04 PM 40.0867 -101.5742 74° East 522 601 35,000  Level Denver Center
Sun 01:32:06 PM 40.1231 -101.3981 75° East 525 604 35,000  Level Denver Center
Sun 01:33:08 PM 40.1653 -101.1925 75° East 526 605 35,000  Level Denver Center
Sun 01:34:10 PM 40.2008 -101.0192 75° East 521 600 35,000  Level Denver Center
Sun 01:35:12 PM 40.2417 -100.8156 75° East 521 600 35,000  Level Denver Center
Sun 01:36:14 PM 40.2764 -100.6431 75° East 515 593 35,000  Level Denver Center
Sun 01:37:16 PM 40.3161 -100.4433 75° East 512 589 35,000  Level Denver Center
Sun 01:38:18 PM 40.3506 -100.2706 75° East 514 592 35,000  Level Denver Center
Sun 01:39:20 PM 40.3894 -100.0714 76° East 510 587 35,000  Level Denver Center
Sun 01:40:22 PM 40.4222 -99.8994 76° East 510 587 35,000  Level Denver Center
Sun 01:41:24 PM 40.4556 -99.7236 76° East 509 586 35,000  Level Denver Center
Sun 01:42:27 PM 40.4967 -99.5083 76° East 508 585 35,000  Level Denver Center
Sun 01:43:29 PM 40.5303 -99.3303 76° East 505 581 35,000  Level Denver Center
Sun 01:44:31 PM 40.5636 -99.1517 76° East 505 581 35,000  Level Denver Center
Sun 01:44:48 PM 40.5697 -99.1164 77° East 507 583 35,000  Level Minneapolis Center
Sun 01:45:50 PM 40.6094 -98.9047 76° East 502 578 35,000  Level Minneapolis Center
Sun 01:46:52 PM 40.6394 -98.7292 77° East 497 572 35,000  Level Minneapolis Center
Sun 01:47:54 PM 40.6711 -98.5567 76° East 492 566 35,000  Level Minneapolis Center
Sun 01:48:55 PM 40.6958 -98.4203 77° East 487 560 35,000  Level Minneapolis Center
Sun 01:49:57 PM 40.7317 -98.2167 77° East 479 551 35,000  Level Minneapolis Center
Sun 01:50:59 PM 40.7617 -98.0475 77° East 478 550 35,000  Level Minneapolis Center
Sun 01:52:01 PM 40.7969 -97.8442 77° East 476 548 35,000  Level Minneapolis Center
Sun 01:53:03 PM 40.8264 -97.6747 77° East 476 548 35,000  Level Minneapolis Center
Sun 01:54:05 PM 40.8550 -97.5025 78° East 478 550 35,000  Level Minneapolis Center
Sun 01:55:07 PM 40.8833 -97.3361 77° East 475 547 35,000  Level Minneapolis Center
Sun 01:56:09 PM 40.9056 -97.2025 78° East 471 542 35,000  Level Minneapolis Center
Sun 01:57:11 PM 40.9383 -97.0014 78° East 469 540 35,000  Level Minneapolis Center
Sun 01:58:13 PM 40.9711 -96.7989 78° East 467 537 35,000  Level Minneapolis Center
Sun 01:59:15 PM 40.9972 -96.6336 78° East 466 536 35,000  Level Minneapolis Center
Sun 02:00:17 PM 41.0250 -96.4658 78° East 466 536 35,000  Level Minneapolis Center
Sun 02:01:31 PM 41.0514 -96.2989 78° East 467 537 35,000  Level Minneapolis Center
Sun 02:02:33 PM 41.0819 -96.1025 78° East 460 529 35,000  Level Minneapolis Center
Sun 02:03:35 PM 41.1117 -95.9056 79° East 461 531 35,000  Level Minneapolis Center
Sun 02:04:37 PM 41.1342 -95.7625 78° East 462 532 35,000  Level Minneapolis Center
Sun 02:05:39 PM 41.1617 -95.5767 79° East 460 529 35,000  Level Minneapolis Center
Sun 02:06:41 PM 41.1872 -95.4100 78° East 462 532 35,000  Level Minneapolis Center
Sun 02:07:43 PM 41.2125 -95.2436 79° East 463 533 35,000  Level Minneapolis Center
Sun 02:08:45 PM 41.2364 -95.0767 79° East 462 532 35,000  Level Minneapolis Center
Sun 02:09:47 PM 41.2644 -94.8786 79° East 458 527 35,000  Level Minneapolis Center
Sun 02:10:49 PM 41.2889 -94.7114 79° East 460 529 35,000  Level Minneapolis Center
Sun 02:11:51 PM 41.3117 -94.5453 80° East 459 528 35,000  Level Minneapolis Center
Sun 02:12:53 PM 41.3367 -94.3806 79° East 456 525 35,000  Level Minneapolis Center
Sun 02:13:55 PM 41.3589 -94.2075 80° East 458 527 35,000  Level Minneapolis Center
Sun 02:14:57 PM 41.3814 -94.0419 80° East 458 527 35,000  Level Minneapolis Center
Sun 02:15:59 PM 41.4039 -93.8764 80° East 457 526 35,000  Level Minneapolis Center
Sun 02:17:01 PM 41.4333 -93.6758 79° East 460 529 35,000  Level Minneapolis Center
Sun 02:18:03 PM 41.4508 -93.5111 82° East 455 524 35,000  Level Minneapolis Center
Sun 02:19:05 PM 41.4650 -93.3458 83° East 454 522 35,000  Level Minneapolis Center
Sun 02:20:07 PM 41.4803 -93.1828 83° East 450 518 35,000  Level Minneapolis Center
Sun 02:21:09 PM 41.4964 -93.0192 82° East 448 516 35,000  Level Minneapolis Center
Sun 02:22:11 PM 41.5147 -92.8214 83° East 448 516 35,000  Level Minneapolis Center
Sun 02:23:13 PM 41.5300 -92.6558 83° East 451 519 35,000  Level Minneapolis Center
Sun 02:23:49 PM 41.5381 -92.5600 84° East 453 521 35,000  Level Chicago Center
Sun 02:24:51 PM 41.5522 -92.3986 83° East 446 513 35,000  Level Chicago Center
Sun 02:25:54 PM 41.5669 -92.2386 83° East 441 507 35,000 48 Level Chicago Center
Sun 02:26:56 PM 41.5833 -92.0433 84° East 444 511 35,100 339 Climbing Chicago Center
Sun 02:27:58 PM 41.5969 -91.8839 83° East 440 506 35,700 677 Climbing Chicago Center
Sun 02:29:00 PM 41.6106 -91.7250 83° East 438 504 36,500 629 Climbing Chicago Center
Sun 02:30:02 PM 41.6231 -91.5694 84° East 431 496 37,000 242 Climbing Chicago Center
Sun 02:31:04 PM 41.6353 -91.4094 84° East 435 501 37,000  Level Chicago Center
Sun 02:32:06 PM 41.6514 -91.2147 84° East 444 511 37,000  Level Chicago Center
Sun 02:33:08 PM 41.6631 -91.0547 84° East 439 505 37,000  Level Chicago Center
Sun 02:34:10 PM 41.6742 -90.8967 85° East 435 501 37,000  Level Chicago Center
Sun 02:35:12 PM 41.6853 -90.7375 85° East 434 499 37,000  Level Chicago Center
Sun 02:36:14 PM 41.6994 -90.5544 84° East 432 497 37,000  Level Chicago Center
Sun 02:37:16 PM 41.7111 -90.3919 84° East 436 502 37,000  Level Chicago Center
Sun 02:38:18 PM 41.7222 -90.2328 85° East 431 496 37,000  Level Chicago Center
Sun 02:39:21 PM 41.7342 -90.0706 84° East 434 499 37,000  Level Chicago Center
Sun 02:40:23 PM 41.7442 -89.9092 85° East 434 499 37,000  Level Chicago Center
Sun 02:41:25 PM 41.7544 -89.7469 85° East 435 501 37,000  Level Chicago Center
Sun 02:42:27 PM 41.7667 -89.5539 85° East 432 497 37,000  Level Chicago Center
Sun 02:43:29 PM 41.7761 -89.4064 85° East 437 503 37,000  Level Chicago Center
Sun 02:44:31 PM 41.7856 -89.2453 85° East 437 503 37,000  Level Chicago Center
Sun 02:45:33 PM 41.7953 -89.0514 86° East 437 503 37,000  Level Chicago Center
Sun 02:46:35 PM 41.8050 -88.8883 85° East 439 505 37,000  Level Chicago Center
Sun 02:47:37 PM 41.8131 -88.7264 86° East 439 505 37,000  Level Chicago Center
Sun 02:48:39 PM 41.8228 -88.5625 85° East 440 506 37,000  Level Chicago Center
Sun 02:49:41 PM 41.8319 -88.3989 86° East 440 506 37,000  Level Chicago Center
Sun 02:50:43 PM 41.8406 -88.2347 86° East 442 509 37,000  Level Chicago Center
Sun 02:51:45 PM 41.8500 -88.0372 86° East 440 506 37,000  Level Chicago Center
Sun 02:52:47 PM 41.8569 -87.8719 87° East 442 509 37,000  Level Chicago Center
Sun 02:53:49 PM 41.8656 -87.7047 86° East 447 514 37,000  Level Chicago Center
Sun 02:54:52 PM 41.8736 -87.5386 86° East 447 514 37,000  Level Chicago Center
Sun 02:55:54 PM 41.8800 -87.3711 87° East 451 519 37,000  Level Chicago Center
Sun 02:56:56 PM 41.8867 -87.2061 87° East 447 514 37,000  Level Chicago Center
Sun 02:57:58 PM 41.8942 -87.0075 87° East 447 514 37,000  Level Chicago Center
Sun 02:59:00 PM 41.9006 -86.8428 87° East 446 513 37,000  Level Chicago Center
Sun 03:00:02 PM 41.9067 -86.6833 87° East 447 514 37,000  Level Chicago Center
Sun 03:01:04 PM 41.9131 -86.5169 87° East 448 516 37,000  Level Chicago Center
Sun 03:02:06 PM 41.9189 -86.3489 87° East 450 518 37,000  Level Chicago Center
Sun 03:03:08 PM 41.9258 -86.1456 87° East 455 524 37,000  Level Chicago Center
Sun 03:04:10 PM 41.9306 -85.9783 88° East 449 517 37,000  Level Chicago Center
Sun 03:05:12 PM 41.9358 -85.8156 87° East 441 507 37,000  Level Chicago Center
Sun 03:06:14 PM 41.9406 -85.6511 88° East 438 504 37,000  Level Chicago Center
Sun 03:07:16 PM 41.9447 -85.4858 88° East 439 505 37,000  Level Chicago Center
Sun 03:08:18 PM 41.9494 -85.3194 88° East 440 506 37,000  Level Chicago Center
Sun 03:09:20 PM 41.9514 -85.1531 89° East 441 507 37,000  Level Chicago Center
Sun 03:09:48 PM 41.9522 -85.0483 89° East 446 513 37,000  Level Cleveland Center
Sun 03:10:48 PM 41.9522 -84.8833 90° East 441 507 37,000  Level Cleveland Center
Sun 03:11:48 PM 41.9500 -84.7183 91° East 441 507 37,000  Level Cleveland Center
Sun 03:12:48 PM 41.9497 -84.5508 90° East 441 507 37,000  Level Cleveland Center
Sun 03:13:48 PM 41.9469 -84.3831 91° East 441 507 37,000  Level Cleveland Center
Sun 03:14:48 PM 41.9414 -84.2375 93° East 441 507 37,000  Level Cleveland Center
Sun 03:15:48 PM 41.9403 -84.0672 90° East 446 513 37,000  Level Cleveland Center
Sun 03:16:48 PM 41.9369 -83.8994 91° East 446 513 37,000  Level Cleveland Center
Sun 03:17:48 PM 41.9356 -83.7319 91° East 446 513 37,000  Level Cleveland Center
Sun 03:18:48 PM 41.9319 -83.5531 91° East 438 504 37,000  Level Cleveland Center
Sun 03:19:48 PM 41.9319 -83.3911 90° East 438 504 37,000  Level Cleveland Center
Sun 03:20:48 PM 41.9317 -83.2236 90° East 438 504 37,000  Level Cleveland Center
Sun 03:21:48 PM 41.9308 -83.0783 90° East 438 504 37,000  Level Cleveland Center
Sun 03:22:48 PM 41.9278 -82.9192 91° East 438 504 37,000  Level Cleveland Center
Sun 03:23:48 PM 41.9289 -82.7603 89° East 438 504 37,000  Level Cleveland Center
Sun 03:24:48 PM 41.9233 -82.6008 93° East 432 497 37,000  Level Cleveland Center
Sun 03:25:48 PM 41.9244 -82.4222 89° East 432 497 37,000  Level Cleveland Center
Sun 03:26:48 PM 41.9206 -82.2603 92° East 432 497 37,000  Level Cleveland Center
Sun 03:27:48 PM 41.9228 -82.1014 89° East 432 497 37,000  Level Cleveland Center
Sun 03:28:48 PM 41.9186 -81.9336 92° East 432 497 37,000  Level Cleveland Center
Sun 03:29:48 PM 41.9119 -81.7744 93° East 432 497 37,000  Level Cleveland Center
Sun 03:31:00 PM 41.8883 -81.5714 99° East  Level FlightAware Approximate
Sun 03:31:48 PM 41.8836 -81.4533 99° East 432 497 37,000  Level Cleveland Center
Sun 03:32:48 PM 41.8703 -81.2942 96° East 425 489 37,000  Level Cleveland Center
Sun 03:33:48 PM 41.8544 -81.1378 98° East 425 489 37,000  Level Cleveland Center
Sun 03:34:48 PM 41.8403 -80.9956 98° East 425 489 37,000  Level Cleveland Center
Sun 03:35:48 PM 41.8242 -80.8394 98° East 425 489 37,000  Level Cleveland Center
Sun 03:36:48 PM 41.8097 -80.6806 97° East 425 489 37,000  Level Cleveland Center
Sun 03:37:48 PM 41.7933 -80.5219 98° East 425 489 37,000  Level Cleveland Center
Sun 03:38:48 PM 41.7764 -80.3631 98° East 425 489 37,000  Level Cleveland Center
Sun 03:39:48 PM 41.7572 -80.1878 98° East 430 495 37,000  Level Cleveland Center
Sun 03:40:48 PM 41.7419 -80.0294 97° East 430 495 37,000  Level Cleveland Center
Sun 03:41:48 PM 41.7264 -79.8736 98° East 425 489 37,000  Level Cleveland Center
Sun 03:42:48 PM 41.7108 -79.7181 98° East 425 489 37,000  Level Cleveland Center
Sun 03:43:48 PM 41.6950 -79.5764 98° East 432 497 37,000  Level Cleveland Center
Sun 03:44:48 PM 41.6789 -79.4156 98° East 426 490 37,000  Level Cleveland Center
Sun 03:45:48 PM 41.6917 -79.2567 84° East 426 490 37,000  Level Cleveland Center
Sun 03:46:48 PM 41.7400 -79.1056 67° East 420 483 37,000  Level Cleveland Center
Sun 03:47:48 PM 41.7650 -78.9489 78° East 425 489 37,000 -450 Level Cleveland Center
Sun 03:48:48 PM 41.7314 -78.7969 106° East 419 482 36,100 -1,000 Descending Cleveland Center
Sun 03:49:48 PM 41.6894 -78.6450 110° East 419 482 35,000 -550 Descending Cleveland Center
Sun 03:50:48 PM 41.6492 -78.4961 110° East 425 489 35,000  Level Cleveland Center
Sun 03:51:48 PM 41.6089 -78.3419 109° East 425 489 35,000 -469 Level Cleveland Center
Sun 03:52:56 PM 41.5639 -78.1683 109° East 423 487 34,000 -1,632 Descending New York Center
Sun 03:53:53 PM 41.5231 -78.0172 110° East 423 487 31,600 -1,525 Descending New York Center
Sun 03:54:54 PM 41.4950 -77.8617 103° East 423 487 31,000 -295 Descending New York Center
Sun 03:55:55 PM 41.4733 -77.6986 100° East 429 494 31,000 -198 Level New York Center
Sun 03:56:55 PM 41.4533 -77.5417 100° East 434 499 30,600 -661 Descending New York Center
Sun 03:57:53 PM 41.4333 -77.4178 102° East 434 499 29,700 -1,462 Descending New York Center
Sun 03:58:54 PM 41.4092 -77.2522 101° East 426 490 27,700 -1,328 Descending New York Center
Sun 03:59:55 PM 41.3875 -77.1089 101° East 409 471 27,000 -344 Descending New York Center
Sun 04:00:56 PM 41.3661 -76.9658 101° East 404 465 27,000  Level New York Center
Sun 04:01:54 PM 41.3431 -76.8036 101° East 404 465 27,000  Level New York Center
Sun 04:02:55 PM 41.3047 -76.6536 109° East 404 465 27,000 -893 Level New York Center
Sun 04:03:55 PM 41.2642 -76.5039 110° East 421 484 25,200 -2,118 Descending New York Center
Sun 04:04:54 PM 41.2214 -76.3542 111° Southeast 428 493 22,800 -2,269 Descending New York Center
Sun 04:05:54 PM 41.1864 -76.2133 108° East 416 479 20,700 -2,132 Descending New York Center
Sun 04:06:55 PM 41.1561 -76.0978 109° East 389 448 18,500 -2,331 Descending New York Center
Sun 04:07:55 PM 41.1167 -75.9569 110° East 370 426 16,000 -2,269 Descending New York Center
Sun 04:08:54 PM 41.0844 -75.8333 109° East 365 420 14,000 -1,462 Descending New York Center
Sun 04:09:54 PM 41.0556 -75.7294 110° East 344 396 13,100 -496 Descending New York Center
Sun 04:10:55 PM 41.0264 -75.6256 110° East 316 364 13,000 -202 Descending New York Center
Sun 04:11:53 PM 40.9956 -75.5161 110° East 297 342 12,700 -661 Descending New York Center
Sun 04:12:53 PM 40.9681 -75.4181 110° East 291 335 11,700 -934 Descending New York Center
Sun 04:13:55 PM 40.9386 -75.3172 111° Southeast 291 335 10,800 -900 Descending New York Center
Sun 04:14:53 PM 40.9150 -75.2303 110° East 286 329 9,900 -958 Descending New York Center
Sun 04:15:54 PM 40.8872 -75.1325 111° Southeast 286 329 8,900 -1,033 Descending New York Center
Sun 04:16:55 PM 40.8597 -75.0319 110° East 275 316 7,800 -942 Descending New York Center
Sun 04:17:55 PM 40.8339 -74.9397 110° East 275 316 7,000 -650 Descending New York Center
Sun 04:18:55 PM 40.7994 -74.8528 118° Southeast 275 316 6,500 -508 Descending New York Center
Sun 04:19:53 PM 40.7708 -74.7744 116° Southeast 270 311 6,000 -252 Descending New York Center
Sun 04:20:54 PM 40.7783 -74.6761 84° East 244 281 6,000 -50 Level New York Center
Sun 04:21:54 PM 40.8319 -74.6272 35° Northeast 224 258 5,900 -337 Descending New York Center
Sun 04:22:23 PM 40.8667 -74.5833 44° Northeast 268 308 5,500 -700 Descending New York TRACON
Sun 04:22:54 PM 40.8764 -74.5417 73° East 248 285 5,200 -326 Descending New York Center
Sun 04:23:55 PM 40.8997 -74.4636 68° East 248 285 5,000 -99 Descending New York Center
Sun 04:24:55 PM 40.9297 -74.3689 67° East 248 285 5,000  Level New York Center
Sun 04:25:23 PM 40.9500 -74.3167 63° Northeast 253 291 5,000 -273 Level New York TRACON
Sun 04:26:23 PM 40.9333 -74.2333 105° East 264 304 4,600 -500 Descending New York TRACON
Sun 04:27:23 PM 40.9000 -74.1667 123° Southeast 256 295 4,000 -600 Descending New York TRACON

Login

Don't have an account? Register now (free) for customized features, flight alerts, and more!